Terminal Aerodrome Forecast
Issued by NWS Sioux Falls, SD

Home | Current Version | Previous Version | Text Only | Print | Product List | Glossary On
Versions: 1 2 3 4 5 6 7 8 9 10 11 12 13 14 15 16 17 18 19 20
375
FTUS43 KFSD 201122
TAFFSD
TAF
KFSD 201122Z 2012/2112 31007KT P6SM FEW250
     FM201800 28008KT P6SM SKC
     FM202100 23006KT P6SM SKC
     FM210000 15005KT P6SM FEW250=

USA.gov is the U.S. government's official web portal to all federal, state and local government web resources and services.